createdAt,value
2023-02-09T00:03:57.559Z,2.17
2023-02-09T00:08:59.280Z,1.83
2023-02-09T00:14:00.650Z,1.99
2023-02-09T00:19:01.993Z,1.96
2023-02-09T00:24:03.870Z,2.02
2023-02-09T00:29:06.573Z,1.95
2023-02-09T00:34:08.471Z,1.81
2023-02-09T00:39:09.902Z,1.66
2023-02-09T00:44:12.543Z,1.71
2023-02-09T00:49:13.940Z,1.81
2023-02-09T00:54:16.949Z,1.74
2023-02-09T00:59:18.724Z,1.60
2023-02-09T01:04:20.170Z,1.42
2023-02-09T01:09:21.993Z,1.31
2023-02-09T01:14:24.328Z,1.34
2023-02-09T01:19:26.749Z,1.24
2023-02-09T01:24:28.300Z,1.06
2023-02-09T01:29:29.661Z,1.10
2023-02-09T01:34:31.023Z,1.28
2023-02-09T01:39:33.221Z,1.24
2023-02-09T01:44:37.601Z,1.14
2023-02-09T01:49:39.193Z,1.03
2023-02-09T01:54:49.157Z,0.97
2023-02-09T01:59:56.201Z,0.92
2023-02-09T02:04:57.949Z,0.82
2023-02-09T02:10:01.063Z,0.73
2023-02-09T02:15:02.634Z,0.61
2023-02-09T02:20:42.549Z,0.74
2023-02-09T02:26:03.238Z,0.69
2023-02-09T02:31:10.507Z,0.77
2023-02-09T02:36:47.259Z,0.73
2023-02-09T02:42:28.127Z,0.59
2023-02-09T02:47:35.168Z,0.53
2023-02-09T02:52:39.517Z,0.46
2023-02-09T02:57:45.190Z,0.46
2023-02-09T03:02:54.938Z,0.50
2023-02-09T03:07:56.261Z,0.28
2023-02-09T03:13:28.214Z,0.39
2023-02-09T03:18:40.473Z,0.48
2023-02-09T03:23:54.205Z,0.40
2023-02-09T03:28:58.754Z,0.52
2023-02-09T03:34:01.140Z,0.46
2023-02-09T03:39:03.672Z,0.49
2023-02-09T03:44:23.893Z,0.56
2023-02-09T03:49:28.032Z,0.26
2023-02-09T03:54:30.693Z,0.22
2023-02-09T03:59:35.401Z,0.05
2023-02-09T04:04:37.485Z,0.15
2023-02-09T04:09:38.912Z,0.24
2023-02-09T04:14:40.243Z,0.13
2023-02-09T04:19:42.064Z,0.31
2023-02-09T04:24:43.416Z,0.14
2023-02-09T04:29:45.046Z,0.13
2023-02-09T04:34:46.715Z,0.21
2023-02-09T04:39:48.145Z,0.12
2023-02-09T04:44:49.822Z,-0.02
2023-02-09T04:49:51.215Z,-0.22
2023-02-09T04:54:52.608Z,-0.05
2023-02-09T04:59:54.009Z,-0.16
2023-02-09T05:04:55.294Z,-0.19
2023-02-09T05:09:56.628Z,-0.37
2023-02-09T05:14:57.964Z,-0.29
2023-02-09T05:20:00.575Z,-0.39
2023-02-09T05:25:01.925Z,-0.45
2023-02-09T05:30:04.038Z,-0.44
2023-02-09T05:35:08.445Z,-0.42
2023-02-09T05:40:10.316Z,-0.57
2023-02-09T05:45:11.640Z,-0.57
2023-02-09T05:50:13.167Z,-0.51
2023-02-09T05:55:14.528Z,-0.58
2023-02-09T06:00:16.278Z,-0.67
2023-02-09T06:05:17.782Z,-0.58
2023-02-09T06:10:19.280Z,-0.72
2023-02-09T06:15:21.058Z,-0.77
2023-02-09T06:20:22.637Z,-0.82
2023-02-09T06:25:24.019Z,-0.65
2023-02-09T06:30:25.438Z,-0.78
2023-02-09T06:35:26.899Z,-0.88
2023-02-09T06:40:28.597Z,-0.79
2023-02-09T06:45:30.266Z,-0.84
2023-02-09T06:50:31.643Z,-0.82
2023-02-09T06:55:34.239Z,-0.88
2023-02-09T07:00:35.706Z,-0.68
2023-02-09T07:05:37.070Z,-0.33
2023-02-09T07:10:40.536Z,-0.40
2023-02-09T07:15:42.032Z,-0.25
2023-02-09T07:20:43.692Z,-0.25
2023-02-09T07:25:45.161Z,-0.25
2023-02-09T07:30:52.084Z,-0.18
2023-02-09T07:35:53.600Z,0.13
2023-02-09T07:40:55.216Z,0.12
2023-02-09T07:46:01.514Z,-0.06
2023-02-09T07:51:03.922Z,0.03
2023-02-09T07:56:06.012Z,0.32
2023-02-09T08:01:10.530Z,0.32
2023-02-09T08:06:41.476Z,0.33
2023-02-09T08:11:52.588Z,0.40
2023-02-09T08:17:17.250Z,0.52
2023-02-09T08:22:19.203Z,0.68
2023-02-09T08:27:20.676Z,0.51
2023-02-09T08:32:22.094Z,0.97
2023-02-09T08:37:23.431Z,0.88
2023-02-09T08:42:24.953Z,0.80
2023-02-09T08:47:26.636Z,0.59
2023-02-09T08:52:28.005Z,0.73
2023-02-09T08:57:43.125Z,0.87
2023-02-09T09:02:45.477Z,1.00
2023-02-09T09:07:46.906Z,1.10
2023-02-09T09:12:48.391Z,1.31
2023-02-09T09:17:49.817Z,1.44
2023-02-09T09:22:51.244Z,1.72
2023-02-09T09:27:52.723Z,2.10
2023-02-09T09:32:55.157Z,2.56
2023-02-09T09:37:58.428Z,2.96
2023-02-09T09:43:08.659Z,3.26
2023-02-09T09:48:28.232Z,3.62
2023-02-09T09:53:35.380Z,4.43
2023-02-09T09:58:41.584Z,5.17
2023-02-09T10:03:43.840Z,6.08
2023-02-09T10:08:59.555Z,8.34
2023-02-09T10:14:01.398Z,10.15
2023-02-09T10:19:05.646Z,11.37
2023-02-09T10:24:23.741Z,11.76
2023-02-09T10:29:25.971Z,10.68
2023-02-09T10:34:40.973Z,10.50
2023-02-09T10:39:42.420Z,10.90
2023-02-09T10:44:50.983Z,12.77
2023-02-09T10:49:55.556Z,15.75
2023-02-09T10:55:02.410Z,17.47
2023-02-09T11:00:15.806Z,19.25
2023-02-09T11:05:20.433Z,19.32
2023-02-09T11:10:22.463Z,19.60
2023-02-09T11:15:27.599Z,20.72
2023-02-09T11:20:35.453Z,21.85
2023-02-09T11:25:48.607Z,21.64
2023-02-09T11:31:40.429Z,22.16
2023-02-09T11:37:04.365Z,22.11
2023-02-09T11:42:31.872Z,23.74
2023-02-09T11:47:40.284Z,23.06
2023-02-09T11:52:51.585Z,23.60
2023-02-09T11:58:02.965Z,24.30
2023-02-09T12:03:11.948Z,23.69
2023-02-09T12:08:32.058Z,24.56
2023-02-09T12:13:39.191Z,23.90
2023-02-09T12:18:43.210Z,25.00
2023-02-09T12:23:45.046Z,24.90
2023-02-09T12:29:03.534Z,25.58
2023-02-09T12:34:14.502Z,24.53
2023-02-09T12:39:24.079Z,24.63
2023-02-09T12:44:25.542Z,25.30
2023-02-09T12:49:26.886Z,25.31
2023-02-09T12:54:29.180Z,25.52
2023-02-09T12:59:30.470Z,26.55
2023-02-09T13:04:38.196Z,25.68
2023-02-09T13:09:41.184Z,24.81
2023-02-09T13:14:47.222Z,23.96
2023-02-09T13:19:54.646Z,25.16
2023-02-09T13:25:01.824Z,25.26
2023-02-09T13:30:03.266Z,24.45
2023-02-09T13:35:20.209Z,23.52
2023-02-09T13:40:30.229Z,24.11
2023-02-09T13:45:31.852Z,25.92
2023-02-09T13:50:33.376Z,25.26
2023-02-09T13:55:37.755Z,24.13
2023-02-09T14:00:49.892Z,23.82
2023-02-09T14:06:18.152Z,23.45
2023-02-09T14:11:42.985Z,22.64
2023-02-09T14:16:52.909Z,21.36
2023-02-09T14:21:55.119Z,20.32
2023-02-09T14:27:03.714Z,20.90
2023-02-09T14:32:33.494Z,20.57
2023-02-09T14:37:36.877Z,20.10
2023-02-09T14:42:56.979Z,18.87
2023-02-09T14:47:58.578Z,16.89
2023-02-09T14:53:08.102Z,16.07
2023-02-09T14:58:30.880Z,14.22
2023-02-09T15:03:32.278Z,13.89
2023-02-09T15:08:37.446Z,13.07
2023-02-09T15:13:39.065Z,12.10
2023-02-09T15:18:40.528Z,11.41
2023-02-09T15:23:42.694Z,10.50
2023-02-09T15:28:44.039Z,9.61
2023-02-09T15:33:45.322Z,9.04
2023-02-09T15:38:47.288Z,8.71
2023-02-09T15:44:07.268Z,8.27
2023-02-09T15:49:08.910Z,8.01
2023-02-09T15:54:22.136Z,7.53
2023-02-09T15:59:23.853Z,7.28
2023-02-09T16:04:25.279Z,7.02
2023-02-09T16:09:28.719Z,6.49
2023-02-09T16:14:31.527Z,6.02
2023-02-09T16:19:32.939Z,5.72
2023-02-09T16:24:43.897Z,5.76
2023-02-09T16:29:45.220Z,5.68
2023-02-09T16:34:46.573Z,5.57
2023-02-09T16:39:47.940Z,5.43
2023-02-09T16:44:49.297Z,5.52
2023-02-09T16:50:02.841Z,5.16
2023-02-09T16:55:06.951Z,4.93
2023-02-09T17:00:09.196Z,4.93
2023-02-09T17:05:31.543Z,4.89
2023-02-09T17:10:34.919Z,4.83
2023-02-09T17:15:42.304Z,4.95
2023-02-09T17:20:47.765Z,4.75
2023-02-09T17:25:50.889Z,4.83
2023-02-09T17:30:56.330Z,4.78
2023-02-09T17:36:24.790Z,4.65
2023-02-09T17:41:22.989Z,4.56
2023-02-09T17:46:24.337Z,4.50
2023-02-09T17:51:34.608Z,4.62
2023-02-09T17:56:36.144Z,4.55
2023-02-09T18:01:42.284Z,4.40
2023-02-09T18:06:43.690Z,4.48
2023-02-09T18:11:45.008Z,4.45
2023-02-09T18:16:47.680Z,4.44
2023-02-09T18:21:58.288Z,4.40
2023-02-09T18:27:00.302Z,4.35
2023-02-09T18:32:02.592Z,4.31
2023-02-09T18:37:04.113Z,4.32
2023-02-09T18:42:05.566Z,4.23
2023-02-09T18:47:07.348Z,4.21
2023-02-09T18:52:10.142Z,4.27
2023-02-09T18:57:13.070Z,4.41
2023-02-09T19:02:14.996Z,4.23
2023-02-09T19:07:16.947Z,4.21
2023-02-09T19:12:18.494Z,4.25
2023-02-09T19:17:21.476Z,4.30
2023-02-09T19:22:22.910Z,4.32
2023-02-09T19:27:26.749Z,4.12
2023-02-09T19:32:29.119Z,4.07
2023-02-09T19:37:30.843Z,4.02
2023-02-09T19:42:32.984Z,3.87
2023-02-09T19:47:34.407Z,3.89
2023-02-09T19:52:38.160Z,3.94
2023-02-09T19:57:39.599Z,3.75
2023-02-09T20:02:40.969Z,3.79
2023-02-09T20:07:43.319Z,3.61
2023-02-09T20:22:53.337Z,3.39
2023-02-09T20:27:55.534Z,3.48
2023-02-09T20:32:57.058Z,3.34
2023-02-09T20:37:58.498Z,2.92
2023-02-09T20:43:18.825Z,2.88
2023-02-09T20:48:20.181Z,2.63
2023-02-09T20:53:22.408Z,2.85
2023-02-09T20:58:24.710Z,2.97
2023-02-09T21:03:26.031Z,2.77
2023-02-09T21:08:27.370Z,2.61
2023-02-09T21:13:29.634Z,2.55
2023-02-09T21:18:30.969Z,2.75
2023-02-09T21:23:32.583Z,2.67
2023-02-09T21:28:35.596Z,2.48
2023-02-09T21:33:37.167Z,2.41
2023-02-09T21:38:41.445Z,2.30
2023-02-09T21:43:43.145Z,2.06
2023-02-09T21:48:44.784Z,2.05
2023-02-09T21:53:46.497Z,2.15
2023-02-09T21:58:48.027Z,1.95
2023-02-09T22:03:57.410Z,1.96
2023-02-09T22:09:02.457Z,1.89
2023-02-09T22:14:04.269Z,1.83
2023-02-09T22:19:05.696Z,1.74
2023-02-09T22:24:07.424Z,1.71
2023-02-09T22:29:10.182Z,1.73
2023-02-09T22:34:11.998Z,1.87
2023-02-09T22:39:14.477Z,1.98
2023-02-09T22:44:17.481Z,1.77
2023-02-09T22:49:20.913Z,1.62
2023-02-09T22:54:22.392Z,1.64
2023-02-09T22:59:23.710Z,1.67
2023-02-09T23:04:25.069Z,1.65
2023-02-09T23:09:26.615Z,1.51
2023-02-09T23:14:28.254Z,1.41
2023-02-09T23:19:29.555Z,1.37
2023-02-09T23:24:30.931Z,1.46
2023-02-09T23:29:32.537Z,1.41
2023-02-09T23:34:33.893Z,1.31
2023-02-09T23:39:37.077Z,1.26
2023-02-09T23:44:38.603Z,1.30
2023-02-09T23:49:40.018Z,1.13
2023-02-09T23:54:41.430Z,1.30
2023-02-09T23:59:42.757Z,1.34
